sensor_id;sensor_type;location;lat;lon;timestamp;P1;durP1;ratioP1;P2;durP2;ratioP2
70556;SDS011;58107;51.034;3.726;2022-09-09T00:00:59;8.25;;;2.10;;
70556;SDS011;58107;51.034;3.726;2022-09-09T00:03:26;10.30;;;1.90;;
70556;SDS011;58107;51.034;3.726;2022-09-09T00:06:04;4.95;;;1.77;;
70556;SDS011;58107;51.034;3.726;2022-09-09T00:11:43;7.40;;;1.77;;
70556;SDS011;58107;51.034;3.726;2022-09-09T00:14:13;5.15;;;2.00;;
70556;SDS011;58107;51.034;3.726;2022-09-09T00:16:42;10.48;;;2.00;;
70556;SDS011;58107;51.034;3.726;2022-09-09T00:21:53;8.58;;;1.70;;
70556;SDS011;58107;51.034;3.726;2022-09-09T00:27:00;6.80;;;1.98;;
70556;SDS011;58107;51.034;3.726;2022-09-09T00:32:13;5.83;;;2.25;;
70556;SDS011;58107;51.034;3.726;2022-09-09T00:34:51;9.43;;;2.05;;
70556;SDS011;58107;51.034;3.726;2022-09-09T00:37:18;6.58;;;1.90;;
70556;SDS011;58107;51.034;3.726;2022-09-09T00:39:48;6.08;;;1.92;;
70556;SDS011;58107;51.034;3.726;2022-09-09T00:42:24;6.33;;;1.87;;
70556;SDS011;58107;51.034;3.726;2022-09-09T00:45:02;6.30;;;2.00;;
70556;SDS011;58107;51.034;3.726;2022-09-09T00:47:44;6.25;;;1.80;;
70556;SDS011;58107;51.034;3.726;2022-09-09T00:50:35;6.47;;;1.80;;
70556;SDS011;58107;51.034;3.726;2022-09-09T00:55:42;4.77;;;1.80;;
70556;SDS011;58107;51.034;3.726;2022-09-09T00:58:15;6.85;;;2.08;;
70556;SDS011;58107;51.034;3.726;2022-09-09T01:00:48;5.17;;;2.00;;
70556;SDS011;58107;51.034;3.726;2022-09-09T01:06:21;6.17;;;1.73;;
70556;SDS011;58107;51.034;3.726;2022-09-09T01:09:02;7.25;;;1.87;;
70556;SDS011;58107;51.034;3.726;2022-09-09T01:19:54;6.92;;;1.98;;
70556;SDS011;58107;51.034;3.726;2022-09-09T01:22:49;6.77;;;1.60;;
70556;SDS011;58107;51.034;3.726;2022-09-09T01:25:28;13.15;;;2.22;;
70556;SDS011;58107;51.034;3.726;2022-09-09T01:28:22;8.33;;;1.95;;
70556;SDS011;58107;51.034;3.726;2022-09-09T01:30:52;4.97;;;1.50;;
70556;SDS011;58107;51.034;3.726;2022-09-09T01:33:21;6.50;;;1.90;;
70556;SDS011;58107;51.034;3.726;2022-09-09T01:35:54;7.03;;;1.82;;
70556;SDS011;58107;51.034;3.726;2022-09-09T01:38:29;10.68;;;1.82;;
70556;SDS011;58107;51.034;3.726;2022-09-09T01:40:58;7.85;;;1.90;;
70556;SDS011;58107;51.034;3.726;2022-09-09T01:43:28;8.50;;;1.82;;
70556;SDS011;58107;51.034;3.726;2022-09-09T01:45:58;12.60;;;2.13;;
70556;SDS011;58107;51.034;3.726;2022-09-09T01:48:27;8.28;;;1.90;;
70556;SDS011;58107;51.034;3.726;2022-09-09T01:50:55;9.68;;;2.00;;
70556;SDS011;58107;51.034;3.726;2022-09-09T01:53:23;7.97;;;1.70;;
70556;SDS011;58107;51.034;3.726;2022-09-09T01:55:55;8.98;;;1.70;;
70556;SDS011;58107;51.034;3.726;2022-09-09T01:58:28;7.03;;;2.12;;
70556;SDS011;58107;51.034;3.726;2022-09-09T02:01:18;7.55;;;2.25;;
70556;SDS011;58107;51.034;3.726;2022-09-09T02:04:04;12.55;;;2.05;;
70556;SDS011;58107;51.034;3.726;2022-09-09T02:06:35;7.37;;;1.90;;
70556;SDS011;58107;51.034;3.726;2022-09-09T02:09:05;5.08;;;2.10;;
70556;SDS011;58107;51.034;3.726;2022-09-09T02:11:34;8.83;;;2.10;;
70556;SDS011;58107;51.034;3.726;2022-09-09T02:14:05;8.83;;;2.00;;
70556;SDS011;58107;51.034;3.726;2022-09-09T02:16:44;9.88;;;1.90;;
70556;SDS011;58107;51.034;3.726;2022-09-09T02:19:20;7.95;;;1.70;;
70556;SDS011;58107;51.034;3.726;2022-09-09T02:21:51;13.00;;;2.30;;
70556;SDS011;58107;51.034;3.726;2022-09-09T02:24:22;11.90;;;2.12;;
70556;SDS011;58107;51.034;3.726;2022-09-09T02:26:53;9.33;;;2.20;;
70556;SDS011;58107;51.034;3.726;2022-09-09T02:29:25;10.88;;;2.30;;
70556;SDS011;58107;51.034;3.726;2022-09-09T02:32:01;11.30;;;2.22;;
70556;SDS011;58107;51.034;3.726;2022-09-09T02:34:31;11.12;;;2.27;;
70556;SDS011;58107;51.034;3.726;2022-09-09T02:37:02;11.93;;;2.20;;
70556;SDS011;58107;51.034;3.726;2022-09-09T02:39:32;11.40;;;2.00;;
70556;SDS011;58107;51.034;3.726;2022-09-09T02:42:00;12.33;;;2.42;;
70556;SDS011;58107;51.034;3.726;2022-09-09T02:44:29;10.55;;;2.10;;
70556;SDS011;58107;51.034;3.726;2022-09-09T02:55:24;15.08;;;2.70;;
70556;SDS011;58107;51.034;3.726;2022-09-09T02:57:52;9.65;;;1.98;;
70556;SDS011;58107;51.034;3.726;2022-09-09T03:00:22;14.93;;;2.40;;
70556;SDS011;58107;51.034;3.726;2022-09-09T03:05:20;11.08;;;2.10;;
70556;SDS011;58107;51.034;3.726;2022-09-09T03:07:48;17.15;;;2.70;;
70556;SDS011;58107;51.034;3.726;2022-09-09T03:10:16;14.93;;;2.60;;
70556;SDS011;58107;51.034;3.726;2022-09-09T03:12:45;15.88;;;2.25;;
70556;SDS011;58107;51.034;3.726;2022-09-09T03:15:13;15.48;;;2.60;;
70556;SDS011;58107;51.034;3.726;2022-09-09T03:17:41;11.10;;;2.12;;
70556;SDS011;58107;51.034;3.726;2022-09-09T03:20:09;15.08;;;2.80;;
70556;SDS011;58107;51.034;3.726;2022-09-09T03:22:38;15.25;;;2.65;;
70556;SDS011;58107;51.034;3.726;2022-09-09T03:25:06;16.02;;;2.50;;
70556;SDS011;58107;51.034;3.726;2022-09-09T03:27:35;19.27;;;2.83;;
70556;SDS011;58107;51.034;3.726;2022-09-09T03:30:02;19.40;;;2.62;;
70556;SDS011;58107;51.034;3.726;2022-09-09T03:32:31;11.48;;;2.37;;
70556;SDS011;58107;51.034;3.726;2022-09-09T03:34:58;17.05;;;2.65;;
70556;SDS011;58107;51.034;3.726;2022-09-09T03:37:26;13.18;;;2.65;;
70556;SDS011;58107;51.034;3.726;2022-09-09T03:39:54;15.05;;;2.77;;
70556;SDS011;58107;51.034;3.726;2022-09-09T03:42:21;12.40;;;2.22;;
70556;SDS011;58107;51.034;3.726;2022-09-09T03:44:49;15.30;;;2.75;;
70556;SDS011;58107;51.034;3.726;2022-09-09T03:47:17;16.52;;;3.20;;
70556;SDS011;58107;51.034;3.726;2022-09-09T03:49:47;11.05;;;2.50;;
70556;SDS011;58107;51.034;3.726;2022-09-09T03:52:15;13.05;;;2.55;;
70556;SDS011;58107;51.034;3.726;2022-09-09T03:54:44;21.00;;;3.37;;
70556;SDS011;58107;51.034;3.726;2022-09-09T03:57:12;12.00;;;3.00;;
70556;SDS011;58107;51.034;3.726;2022-09-09T03:59:41;16.55;;;3.25;;
70556;SDS011;58107;51.034;3.726;2022-09-09T04:02:09;16.32;;;3.02;;
70556;SDS011;58107;51.034;3.726;2022-09-09T04:04:37;13.18;;;2.75;;
70556;SDS011;58107;51.034;3.726;2022-09-09T04:07:05;16.42;;;3.22;;
70556;SDS011;58107;51.034;3.726;2022-09-09T04:09:33;14.87;;;2.83;;
70556;SDS011;58107;51.034;3.726;2022-09-09T04:12:01;17.65;;;2.90;;
70556;SDS011;58107;51.034;3.726;2022-09-09T04:14:30;13.77;;;2.80;;
70556;SDS011;58107;51.034;3.726;2022-09-09T04:16:57;14.45;;;3.10;;
70556;SDS011;58107;51.034;3.726;2022-09-09T04:19:26;20.17;;;3.22;;
70556;SDS011;58107;51.034;3.726;2022-09-09T04:21:54;14.60;;;2.72;;
70556;SDS011;58107;51.034;3.726;2022-09-09T04:24:21;13.30;;;2.72;;
70556;SDS011;58107;51.034;3.726;2022-09-09T04:26:50;16.93;;;3.17;;
70556;SDS011;58107;51.034;3.726;2022-09-09T04:29:18;10.30;;;2.55;;
70556;SDS011;58107;51.034;3.726;2022-09-09T04:31:49;15.38;;;3.52;;
70556;SDS011;58107;51.034;3.726;2022-09-09T04:34:17;14.03;;;2.85;;
70556;SDS011;58107;51.034;3.726;2022-09-09T04:36:45;14.75;;;2.95;;
70556;SDS011;58107;51.034;3.726;2022-09-09T04:39:13;17.05;;;3.08;;
70556;SDS011;58107;51.034;3.726;2022-09-09T04:41:41;17.80;;;3.05;;
70556;SDS011;58107;51.034;3.726;2022-09-09T04:44:08;16.25;;;2.62;;
70556;SDS011;58107;51.034;3.726;2022-09-09T04:46:37;16.55;;;3.08;;
70556;SDS011;58107;51.034;3.726;2022-09-09T04:49:04;20.08;;;3.08;;
70556;SDS011;58107;51.034;3.726;2022-09-09T04:51:32;17.65;;;2.95;;
70556;SDS011;58107;51.034;3.726;2022-09-09T04:54:00;17.65;;;3.15;;
70556;SDS011;58107;51.034;3.726;2022-09-09T04:56:27;19.77;;;2.98;;
70556;SDS011;58107;51.034;3.726;2022-09-09T04:58:55;16.60;;;3.25;;
70556;SDS011;58107;51.034;3.726;2022-09-09T05:01:25;13.20;;;3.25;;
70556;SDS011;58107;51.034;3.726;2022-09-09T05:03:53;21.75;;;3.62;;
70556;SDS011;58107;51.034;3.726;2022-09-09T05:06:21;20.80;;;3.30;;
70556;SDS011;58107;51.034;3.726;2022-09-09T05:08:50;17.10;;;3.07;;
70556;SDS011;58107;51.034;3.726;2022-09-09T05:11:23;15.95;;;3.15;;
70556;SDS011;58107;51.034;3.726;2022-09-09T05:13:52;19.82;;;3.40;;
70556;SDS011;58107;51.034;3.726;2022-09-09T05:16:22;19.65;;;3.22;;
70556;SDS011;58107;51.034;3.726;2022-09-09T05:18:50;16.60;;;3.95;;
70556;SDS011;58107;51.034;3.726;2022-09-09T05:21:18;16.30;;;3.08;;
70556;SDS011;58107;51.034;3.726;2022-09-09T05:23:47;23.30;;;3.10;;
70556;SDS011;58107;51.034;3.726;2022-09-09T05:26:17;16.73;;;3.17;;
70556;SDS011;58107;51.034;3.726;2022-09-09T05:28:46;19.05;;;3.20;;
70556;SDS011;58107;51.034;3.726;2022-09-09T05:31:15;16.67;;;3.50;;
70556;SDS011;58107;51.034;3.726;2022-09-09T05:33:45;16.07;;;3.33;;
70556;SDS011;58107;51.034;3.726;2022-09-09T05:36:16;16.37;;;3.02;;
70556;SDS011;58107;51.034;3.726;2022-09-09T05:38:46;15.45;;;2.77;;
70556;SDS011;58107;51.034;3.726;2022-09-09T05:41:15;23.22;;;3.77;;
70556;SDS011;58107;51.034;3.726;2022-09-09T05:43:44;19.50;;;3.42;;
70556;SDS011;58107;51.034;3.726;2022-09-09T05:46:17;18.05;;;3.25;;
70556;SDS011;58107;51.034;3.726;2022-09-09T05:48:47;14.93;;;3.10;;
70556;SDS011;58107;51.034;3.726;2022-09-09T05:51:20;15.60;;;2.85;;
70556;SDS011;58107;51.034;3.726;2022-09-09T05:53:50;17.67;;;3.17;;
70556;SDS011;58107;51.034;3.726;2022-09-09T05:56:18;16.82;;;3.02;;
70556;SDS011;58107;51.034;3.726;2022-09-09T05:58:52;13.22;;;2.85;;
70556;SDS011;58107;51.034;3.726;2022-09-09T06:01:22;12.23;;;2.98;;
70556;SDS011;58107;51.034;3.726;2022-09-09T06:03:52;19.10;;;3.12;;
70556;SDS011;58107;51.034;3.726;2022-09-09T06:06:21;15.23;;;3.17;;
70556;SDS011;58107;51.034;3.726;2022-09-09T06:08:52;16.20;;;3.10;;
70556;SDS011;58107;51.034;3.726;2022-09-09T06:11:26;22.02;;;4.20;;
70556;SDS011;58107;51.034;3.726;2022-09-09T06:13:56;25.88;;;3.80;;
70556;SDS011;58107;51.034;3.726;2022-09-09T06:16:25;19.77;;;4.15;;
70556;SDS011;58107;51.034;3.726;2022-09-09T06:21:29;16.62;;;4.08;;
70556;SDS011;58107;51.034;3.726;2022-09-09T06:23:58;22.52;;;4.62;;
70556;SDS011;58107;51.034;3.726;2022-09-09T06:26:27;21.17;;;4.50;;
70556;SDS011;58107;51.034;3.726;2022-09-09T06:28:57;21.48;;;4.03;;
70556;SDS011;58107;51.034;3.726;2022-09-09T06:31:26;21.12;;;4.78;;
70556;SDS011;58107;51.034;3.726;2022-09-09T06:34:00;16.75;;;4.20;;
70556;SDS011;58107;51.034;3.726;2022-09-09T06:36:29;23.77;;;4.83;;
70556;SDS011;58107;51.034;3.726;2022-09-09T06:39:02;19.95;;;4.90;;
70556;SDS011;58107;51.034;3.726;2022-09-09T06:41:31;20.70;;;4.45;;
70556;SDS011;58107;51.034;3.726;2022-09-09T06:44:00;19.40;;;4.90;;
70556;SDS011;58107;51.034;3.726;2022-09-09T06:46:29;32.07;;;5.17;;
70556;SDS011;58107;51.034;3.726;2022-09-09T06:48:59;18.73;;;4.72;;
70556;SDS011;58107;51.034;3.726;2022-09-09T06:51:28;21.60;;;5.17;;
70556;SDS011;58107;51.034;3.726;2022-09-09T06:53:59;23.20;;;4.70;;
70556;SDS011;58107;51.034;3.726;2022-09-09T06:56:32;20.70;;;4.47;;
70556;SDS011;58107;51.034;3.726;2022-09-09T06:59:00;18.12;;;4.12;;
70556;SDS011;58107;51.034;3.726;2022-09-09T07:01:31;21.30;;;4.70;;
70556;SDS011;58107;51.034;3.726;2022-09-09T07:06:30;21.42;;;4.12;;
70556;SDS011;58107;51.034;3.726;2022-09-09T07:09:01;20.27;;;3.92;;
70556;SDS011;58107;51.034;3.726;2022-09-09T07:11:31;19.17;;;3.70;;
70556;SDS011;58107;51.034;3.726;2022-09-09T07:14:01;18.32;;;3.85;;
70556;SDS011;58107;51.034;3.726;2022-09-09T07:16:28;16.02;;;4.33;;
70556;SDS011;58107;51.034;3.726;2022-09-09T07:18:58;19.35;;;3.58;;
70556;SDS011;58107;51.034;3.726;2022-09-09T07:21:26;13.32;;;3.77;;
70556;SDS011;58107;51.034;3.726;2022-09-09T07:23:55;24.72;;;4.17;;
70556;SDS011;58107;51.034;3.726;2022-09-09T07:26:25;15.95;;;3.77;;
70556;SDS011;58107;51.034;3.726;2022-09-09T07:28:54;21.15;;;3.83;;
70556;SDS011;58107;51.034;3.726;2022-09-09T07:31:23;17.57;;;3.85;;
70556;SDS011;58107;51.034;3.726;2022-09-09T07:33:58;21.17;;;3.65;;
70556;SDS011;58107;51.034;3.726;2022-09-09T07:36:28;14.28;;;3.20;;
70556;SDS011;58107;51.034;3.726;2022-09-09T07:38:59;18.75;;;3.52;;
70556;SDS011;58107;51.034;3.726;2022-09-09T07:41:29;15.68;;;4.87;;
70556;SDS011;58107;51.034;3.726;2022-09-09T07:44:03;13.45;;;3.25;;
70556;SDS011;58107;51.034;3.726;2022-09-09T07:46:36;15.03;;;3.05;;
70556;SDS011;58107;51.034;3.726;2022-09-09T07:49:05;10.57;;;3.00;;
70556;SDS011;58107;51.034;3.726;2022-09-09T07:51:35;15.48;;;3.45;;
70556;SDS011;58107;51.034;3.726;2022-09-09T07:54:09;8.28;;;2.60;;
70556;SDS011;58107;51.034;3.726;2022-09-09T07:56:38;17.40;;;3.20;;
70556;SDS011;58107;51.034;3.726;2022-09-09T07:59:06;14.63;;;3.17;;
70556;SDS011;58107;51.034;3.726;2022-09-09T08:01:37;10.95;;;3.40;;
70556;SDS011;58107;51.034;3.726;2022-09-09T08:04:17;13.18;;;3.92;;
70556;SDS011;58107;51.034;3.726;2022-09-09T08:06:47;19.03;;;4.20;;
70556;SDS011;58107;51.034;3.726;2022-09-09T08:09:19;13.78;;;3.40;;
70556;SDS011;58107;51.034;3.726;2022-09-09T08:11:49;22.20;;;3.98;;
70556;SDS011;58107;51.034;3.726;2022-09-09T08:14:17;14.75;;;3.98;;
70556;SDS011;58107;51.034;3.726;2022-09-09T08:16:46;19.60;;;3.98;;
70556;SDS011;58107;51.034;3.726;2022-09-09T08:19:15;20.20;;;4.05;;
70556;SDS011;58107;51.034;3.726;2022-09-09T08:21:43;16.65;;;3.70;;
70556;SDS011;58107;51.034;3.726;2022-09-09T08:24:12;15.83;;;3.67;;
70556;SDS011;58107;51.034;3.726;2022-09-09T08:26:42;16.55;;;3.90;;
70556;SDS011;58107;51.034;3.726;2022-09-09T08:29:11;15.78;;;3.22;;
70556;SDS011;58107;51.034;3.726;2022-09-09T08:31:47;14.25;;;3.12;;
70556;SDS011;58107;51.034;3.726;2022-09-09T08:34:20;16.73;;;3.47;;
70556;SDS011;58107;51.034;3.726;2022-09-09T08:36:49;12.70;;;3.10;;
70556;SDS011;58107;51.034;3.726;2022-09-09T08:39:18;15.50;;;2.90;;
70556;SDS011;58107;51.034;3.726;2022-09-09T08:47:13;11.48;;;3.02;;
70556;SDS011;58107;51.034;3.726;2022-09-09T08:54:48;10.63;;;2.85;;
70556;SDS011;58107;51.034;3.726;2022-09-09T08:57:21;14.13;;;2.90;;
70556;SDS011;58107;51.034;3.726;2022-09-09T08:59:52;11.28;;;2.72;;
70556;SDS011;58107;51.034;3.726;2022-09-09T09:02:39;13.10;;;3.00;;
70556;SDS011;58107;51.034;3.726;2022-09-09T09:07:51;12.00;;;3.15;;
70556;SDS011;58107;51.034;3.726;2022-09-09T09:13:20;12.50;;;2.50;;
70556;SDS011;58107;51.034;3.726;2022-09-09T09:15:48;9.40;;;2.60;;
70556;SDS011;58107;51.034;3.726;2022-09-09T09:18:17;10.55;;;2.70;;
70556;SDS011;58107;51.034;3.726;2022-09-09T09:20:56;9.40;;;2.40;;
70556;SDS011;58107;51.034;3.726;2022-09-09T09:23:22;14.68;;;5.03;;
70556;SDS011;58107;51.034;3.726;2022-09-09T09:25:56;10.93;;;2.50;;
70556;SDS011;58107;51.034;3.726;2022-09-09T09:28:27;10.53;;;2.60;;
70556;SDS011;58107;51.034;3.726;2022-09-09T09:33:47;9.35;;;2.52;;
70556;SDS011;58107;51.034;3.726;2022-09-09T09:36:19;12.93;;;2.87;;
70556;SDS011;58107;51.034;3.726;2022-09-09T09:38:57;9.05;;;2.47;;
70556;SDS011;58107;51.034;3.726;2022-09-09T09:41:36;7.40;;;2.40;;
70556;SDS011;58107;51.034;3.726;2022-09-09T09:44:18;9.55;;;2.60;;
70556;SDS011;58107;51.034;3.726;2022-09-09T09:46:51;7.10;;;2.10;;
70556;SDS011;58107;51.034;3.726;2022-09-09T09:49:20;11.78;;;2.72;;
70556;SDS011;58107;51.034;3.726;2022-09-09T09:51:48;10.68;;;2.83;;
70556;SDS011;58107;51.034;3.726;2022-09-09T09:54:18;7.50;;;2.02;;
70556;SDS011;58107;51.034;3.726;2022-09-09T09:56:50;12.80;;;3.02;;
70556;SDS011;58107;51.034;3.726;2022-09-09T09:59:32;8.53;;;2.33;;
70556;SDS011;58107;51.034;3.726;2022-09-09T10:01:49;9.83;;;2.85;;
70556;SDS011;58107;51.034;3.726;2022-09-09T10:04:18;10.05;;;2.10;;
70556;SDS011;58107;51.034;3.726;2022-09-09T10:06:49;8.28;;;2.02;;
70556;SDS011;58107;51.034;3.726;2022-09-09T10:09:26;8.73;;;2.67;;
70556;SDS011;58107;51.034;3.726;2022-09-09T10:11:54;10.60;;;2.02;;
70556;SDS011;58107;51.034;3.726;2022-09-09T10:14:30;10.03;;;1.90;;
70556;SDS011;58107;51.034;3.726;2022-09-09T10:17:15;8.90;;;1.95;;
70556;SDS011;58107;51.034;3.726;2022-09-09T10:19:50;10.15;;;2.50;;
70556;SDS011;58107;51.034;3.726;2022-09-09T10:22:25;7.90;;;2.52;;
70556;SDS011;58107;51.034;3.726;2022-09-09T10:33:10;5.90;;;1.85;;
70556;SDS011;58107;51.034;3.726;2022-09-09T10:44:33;7.67;;;1.80;;
70556;SDS011;58107;51.034;3.726;2022-09-09T10:53:06;11.00;;;1.70;;
70556;SDS011;58107;51.034;3.726;2022-09-09T10:55:41;7.45;;;2.10;;
70556;SDS011;58107;51.034;3.726;2022-09-09T10:58:16;10.75;;;2.00;;
70556;SDS011;58107;51.034;3.726;2022-09-09T11:00:44;10.03;;;2.15;;
70556;SDS011;58107;51.034;3.726;2022-09-09T11:03:30;7.45;;;1.80;;
70556;SDS011;58107;51.034;3.726;2022-09-09T11:05:57;6.80;;;2.08;;
70556;SDS011;58107;51.034;3.726;2022-09-09T11:08:28;10.13;;;2.00;;
70556;SDS011;58107;51.034;3.726;2022-09-09T11:11:04;6.75;;;1.52;;
70556;SDS011;58107;51.034;3.726;2022-09-09T11:19:13;7.80;;;1.70;;
70556;SDS011;58107;51.034;3.726;2022-09-09T11:21:48;4.60;;;1.60;;
70556;SDS011;58107;51.034;3.726;2022-09-09T11:24:26;5.78;;;1.62;;
70556;SDS011;58107;51.034;3.726;2022-09-09T11:26:58;8.25;;;1.95;;
70556;SDS011;58107;51.034;3.726;2022-09-09T11:32:34;7.53;;;1.77;;
70556;SDS011;58107;51.034;3.726;2022-09-09T11:35:09;5.83;;;1.62;;
70556;SDS011;58107;51.034;3.726;2022-09-09T11:40:26;5.72;;;1.30;;
70556;SDS011;58107;51.034;3.726;2022-09-09T11:43:13;6.22;;;1.65;;
70556;SDS011;58107;51.034;3.726;2022-09-09T11:45:43;4.97;;;1.20;;
70556;SDS011;58107;51.034;3.726;2022-09-09T11:48:25;4.85;;;1.62;;
70556;SDS011;58107;51.034;3.726;2022-09-09T11:51:00;4.92;;;1.72;;
70556;SDS011;58107;51.034;3.726;2022-09-09T11:53:58;7.75;;;1.47;;
70556;SDS011;58107;51.034;3.726;2022-09-09T11:59:02;6.25;;;2.00;;
70556;SDS011;58107;51.034;3.726;2022-09-09T12:01:35;5.15;;;1.40;;
70556;SDS011;58107;51.034;3.726;2022-09-09T12:04:14;6.03;;;1.77;;
70556;SDS011;58107;51.034;3.726;2022-09-09T12:06:45;5.75;;;1.45;;
70556;SDS011;58107;51.034;3.726;2022-09-09T12:11:49;5.22;;;1.37;;
70556;SDS011;58107;51.034;3.726;2022-09-09T12:14:21;4.53;;;1.20;;
70556;SDS011;58107;51.034;3.726;2022-09-09T12:16:50;4.85;;;1.60;;
70556;SDS011;58107;51.034;3.726;2022-09-09T12:19:19;5.15;;;1.57;;
70556;SDS011;58107;51.034;3.726;2022-09-09T12:21:58;6.25;;;1.77;;
70556;SDS011;58107;51.034;3.726;2022-09-09T12:24:25;6.92;;;1.60;;
70556;SDS011;58107;51.034;3.726;2022-09-09T12:29:36;6.30;;;1.70;;
70556;SDS011;58107;51.034;3.726;2022-09-09T12:32:11;7.62;;;2.25;;
70556;SDS011;58107;51.034;3.726;2022-09-09T12:34:46;5.45;;;1.32;;
70556;SDS011;58107;51.034;3.726;2022-09-09T12:40:17;7.40;;;1.77;;
70556;SDS011;58107;51.034;3.726;2022-09-09T12:42:39;4.17;;;1.65;;
70556;SDS011;58107;51.034;3.726;2022-09-09T12:45:15;4.75;;;1.40;;
70556;SDS011;58107;51.034;3.726;2022-09-09T12:48:08;6.53;;;1.65;;
70556;SDS011;58107;51.034;3.726;2022-09-09T12:50:38;3.95;;;1.40;;
70556;SDS011;58107;51.034;3.726;2022-09-09T12:53:18;7.05;;;2.52;;
70556;SDS011;58107;51.034;3.726;2022-09-09T12:55:50;6.55;;;1.95;;
70556;SDS011;58107;51.034;3.726;2022-09-09T12:58:20;5.45;;;1.80;;
70556;SDS011;58107;51.034;3.726;2022-09-09T13:00:49;6.85;;;2.00;;
70556;SDS011;58107;51.034;3.726;2022-09-09T13:03:22;7.92;;;2.08;;
70556;SDS011;58107;51.034;3.726;2022-09-09T13:05:51;8.55;;;1.90;;
70556;SDS011;58107;51.034;3.726;2022-09-09T13:08:19;6.05;;;1.50;;
70556;SDS011;58107;51.034;3.726;2022-09-09T13:10:52;7.45;;;1.90;;
70556;SDS011;58107;51.034;3.726;2022-09-09T13:13:23;7.42;;;1.82;;
70556;SDS011;58107;51.034;3.726;2022-09-09T13:15:57;7.03;;;2.02;;
70556;SDS011;58107;51.034;3.726;2022-09-09T13:18:33;9.13;;;2.12;;
70556;SDS011;58107;51.034;3.726;2022-09-09T13:20:57;6.10;;;1.67;;
70556;SDS011;58107;51.034;3.726;2022-09-09T13:23:27;5.25;;;1.82;;
70556;SDS011;58107;51.034;3.726;2022-09-09T13:25:58;9.93;;;1.95;;
70556;SDS011;58107;51.034;3.726;2022-09-09T13:28:28;8.08;;;1.52;;
70556;SDS011;58107;51.034;3.726;2022-09-09T13:30:57;3.90;;;1.50;;
70556;SDS011;58107;51.034;3.726;2022-09-09T13:33:34;5.78;;;1.70;;
70556;SDS011;58107;51.034;3.726;2022-09-09T13:36:04;5.60;;;1.70;;
70556;SDS011;58107;51.034;3.726;2022-09-09T13:38:53;5.33;;;1.72;;
70556;SDS011;58107;51.034;3.726;2022-09-09T13:41:21;4.37;;;1.47;;
70556;SDS011;58107;51.034;3.726;2022-09-09T13:43:50;4.78;;;1.60;;
70556;SDS011;58107;51.034;3.726;2022-09-09T13:46:40;6.17;;;1.62;;
70556;SDS011;58107;51.034;3.726;2022-09-09T13:51:43;8.20;;;1.72;;
70556;SDS011;58107;51.034;3.726;2022-09-09T13:54:17;4.72;;;1.42;;
70556;SDS011;58107;51.034;3.726;2022-09-09T13:59:16;8.68;;;1.47;;
70556;SDS011;58107;51.034;3.726;2022-09-09T14:01:47;5.58;;;1.40;;
70556;SDS011;58107;51.034;3.726;2022-09-09T14:04:18;5.30;;;1.77;;
70556;SDS011;58107;51.034;3.726;2022-09-09T14:06:49;4.60;;;1.57;;
70556;SDS011;58107;51.034;3.726;2022-09-09T14:09:17;4.85;;;1.75;;
70556;SDS011;58107;51.034;3.726;2022-09-09T14:11:45;6.65;;;1.75;;
70556;SDS011;58107;51.034;3.726;2022-09-09T14:14:13;5.58;;;1.70;;
70556;SDS011;58107;51.034;3.726;2022-09-09T14:16:41;8.05;;;1.82;;
70556;SDS011;58107;51.034;3.726;2022-09-09T14:19:09;5.08;;;1.90;;
70556;SDS011;58107;51.034;3.726;2022-09-09T14:21:37;8.60;;;1.85;;
70556;SDS011;58107;51.034;3.726;2022-09-09T14:24:04;6.72;;;2.05;;
70556;SDS011;58107;51.034;3.726;2022-09-09T14:26:32;9.20;;;2.10;;
70556;SDS011;58107;51.034;3.726;2022-09-09T14:29:00;6.42;;;1.72;;
70556;SDS011;58107;51.034;3.726;2022-09-09T14:31:29;11.07;;;2.00;;
70556;SDS011;58107;51.034;3.726;2022-09-09T14:33:57;8.25;;;1.80;;
70556;SDS011;58107;51.034;3.726;2022-09-09T14:36:25;3.85;;;1.40;;
70556;SDS011;58107;51.034;3.726;2022-09-09T14:38:52;5.17;;;1.50;;
70556;SDS011;58107;51.034;3.726;2022-09-09T14:41:25;6.08;;;1.57;;
70556;SDS011;58107;51.034;3.726;2022-09-09T14:43:52;4.83;;;1.17;;
70556;SDS011;58107;51.034;3.726;2022-09-09T14:46:21;5.30;;;1.55;;
70556;SDS011;58107;51.034;3.726;2022-09-09T14:48:50;3.87;;;1.35;;
70556;SDS011;58107;51.034;3.726;2022-09-09T14:51:23;4.50;;;1.47;;
70556;SDS011;58107;51.034;3.726;2022-09-09T14:53:51;7.78;;;1.75;;
70556;SDS011;58107;51.034;3.726;2022-09-09T14:56:21;9.68;;;1.62;;
70556;SDS011;58107;51.034;3.726;2022-09-09T14:58:52;4.50;;;1.32;;
70556;SDS011;58107;51.034;3.726;2022-09-09T15:01:24;9.58;;;1.80;;
70556;SDS011;58107;51.034;3.726;2022-09-09T15:03:58;4.22;;;1.60;;
70556;SDS011;58107;51.034;3.726;2022-09-09T15:06:27;4.90;;;1.70;;
70556;SDS011;58107;51.034;3.726;2022-09-09T15:08:57;7.08;;;1.45;;
70556;SDS011;58107;51.034;3.726;2022-09-09T15:11:26;6.87;;;1.50;;
70556;SDS011;58107;51.034;3.726;2022-09-09T15:13:57;4.20;;;1.20;;
70556;SDS011;58107;51.034;3.726;2022-09-09T15:16:26;3.60;;;1.40;;
70556;SDS011;58107;51.034;3.726;2022-09-09T15:18:55;6.70;;;1.30;;
70556;SDS011;58107;51.034;3.726;2022-09-09T15:23:53;3.42;;;1.35;;
70556;SDS011;58107;51.034;3.726;2022-09-09T15:26:21;9.40;;;1.95;;
70556;SDS011;58107;51.034;3.726;2022-09-09T15:28:49;3.27;;;1.40;;
70556;SDS011;58107;51.034;3.726;2022-09-09T15:31:27;4.67;;;1.67;;
70556;SDS011;58107;51.034;3.726;2022-09-09T15:33:54;6.00;;;1.42;;
70556;SDS011;58107;51.034;3.726;2022-09-09T15:36:33;6.33;;;1.50;;
70556;SDS011;58107;51.034;3.726;2022-09-09T15:39:04;3.80;;;1.70;;
70556;SDS011;58107;51.034;3.726;2022-09-09T15:41:34;5.33;;;1.40;;
70556;SDS011;58107;51.034;3.726;2022-09-09T15:44:03;5.08;;;1.72;;
70556;SDS011;58107;51.034;3.726;2022-09-09T15:46:32;5.53;;;1.75;;
70556;SDS011;58107;51.034;3.726;2022-09-09T15:49:13;3.65;;;1.40;;
70556;SDS011;58107;51.034;3.726;2022-09-09T15:51:51;6.15;;;1.62;;
70556;SDS011;58107;51.034;3.726;2022-09-09T15:56:55;6.92;;;2.10;;
70556;SDS011;58107;51.034;3.726;2022-09-09T15:59:26;6.28;;;2.00;;
70556;SDS011;58107;51.034;3.726;2022-09-09T16:01:55;4.15;;;1.80;;
70556;SDS011;58107;51.034;3.726;2022-09-09T16:04:26;5.72;;;2.20;;
70556;SDS011;58107;51.034;3.726;2022-09-09T16:06:58;7.65;;;1.90;;
70556;SDS011;58107;51.034;3.726;2022-09-09T16:09:27;5.60;;;1.75;;
70556;SDS011;58107;51.034;3.726;2022-09-09T16:11:57;6.22;;;2.08;;
70556;SDS011;58107;51.034;3.726;2022-09-09T16:14:27;6.50;;;2.00;;
70556;SDS011;58107;51.034;3.726;2022-09-09T16:19:24;7.70;;;2.00;;
70556;SDS011;58107;51.034;3.726;2022-09-09T16:21:52;5.58;;;1.60;;
70556;SDS011;58107;51.034;3.726;2022-09-09T16:24:19;8.40;;;1.92;;
70556;SDS011;58107;51.034;3.726;2022-09-09T16:26:48;5.70;;;1.90;;
70556;SDS011;58107;51.034;3.726;2022-09-09T16:29:18;7.37;;;2.15;;
70556;SDS011;58107;51.034;3.726;2022-09-09T16:31:49;8.88;;;2.22;;
70556;SDS011;58107;51.034;3.726;2022-09-09T16:34:17;3.93;;;2.00;;
70556;SDS011;58107;51.034;3.726;2022-09-09T16:36:45;5.90;;;1.95;;
70556;SDS011;58107;51.034;3.726;2022-09-09T16:39:16;5.10;;;1.90;;
70556;SDS011;58107;51.034;3.726;2022-09-09T16:41:45;5.17;;;1.85;;
70556;SDS011;58107;51.034;3.726;2022-09-09T16:44:15;8.95;;;2.17;;
70556;SDS011;58107;51.034;3.726;2022-09-09T16:46:44;6.17;;;2.15;;
70556;SDS011;58107;51.034;3.726;2022-09-09T16:49:14;6.42;;;2.20;;
70556;SDS011;58107;51.034;3.726;2022-09-09T16:51:46;5.65;;;1.95;;
70556;SDS011;58107;51.034;3.726;2022-09-09T16:54:17;10.30;;;2.33;;
70556;SDS011;58107;51.034;3.726;2022-09-09T16:56:47;7.70;;;2.40;;
70556;SDS011;58107;51.034;3.726;2022-09-09T16:59:18;4.27;;;1.93;;
70556;SDS011;58107;51.034;3.726;2022-09-09T17:04:34;7.08;;;2.15;;